Time;durP1;ratioP1;P1;durP2;ratioP2;P2;SDS_P1;SDS_P2;PMS_P1;PMS_P2;Temp;Humidity;BMP_temperature;BMP_pressure;BME280_temperature;BME280_humidity;BME280_pressure;Samples;Min_cycle;Max_cycle;Signal;HPM_P1;HPM_P2
2024/03/13 00:33:23;;;;;;;0.80;0.80;;;1.10;99.90;;;;;;5090287;28;20199;-74
2024/03/13 00:35:48;;;;;;;0.70;0.70;;;1.10;99.90;;;;;;5014269;28;20221;-75
2024/03/13 00:38:33;;;;;;;0.80;0.80;;;1.10;99.90;;;;;;5014130;28;20641;-75
2024/03/13 00:41:02;;;;;;;46.53;2.17;;;1.10;99.90;;;;;;5012657;28;20220;-75
2024/03/13 00:43:37;;;;;;;0.60;0.60;;;1.10;99.90;;;;;;5012237;28;20621;-75
2024/03/13 00:46:19;;;;;;;1.10;1.05;;;1.10;99.90;;;;;;5012391;28;20664;-75
2024/03/13 00:48:50;;;;;;;0.85;0.85;;;1.10;99.90;;;;;;5029162;28;20198;-76
2024/03/13 00:51:18;;;;;;;0.80;0.80;;;1.10;99.90;;;;;;5012080;28;20692;-76
2024/03/13 00:53:46;;;;;;;0.60;0.60;;;1.00;99.90;;;;;;5012075;28;20282;-75
2024/03/13 00:56:18;;;;;;;0.80;0.80;;;1.00;99.90;;;;;;5012458;28;20285;-75
2024/03/13 00:58:44;;;;;;;0.70;0.70;;;0.90;99.90;;;;;;5052703;28;20636;-75
2024/03/13 01:01:18;;;;;;;0.70;0.70;;;1.00;99.90;;;;;;5074160;28;20220;-73
2024/03/13 01:06:39;;;;;;;2.05;1.67;;;1.00;99.90;;;;;;5074050;28;20197;-75
2024/03/13 01:09:11;;;;;;;0.73;0.73;;;0.90;99.90;;;;;;5073899;28;20189;-75
2024/03/13 01:11:42;;;;;;;0.85;0.85;;;0.90;99.90;;;;;;5073648;28;20583;-75
2024/03/13 01:14:13;;;;;;;0.70;0.70;;;0.90;99.90;;;;;;5073253;28;20204;-75
2024/03/13 01:16:45;;;;;;;0.98;0.98;;;0.90;99.90;;;;;;5073287;28;20201;-75
2024/03/13 01:29:28;;;;;;;0.90;0.90;;;0.90;99.90;;;;;;5073732;28;20211;-75
2024/03/13 01:38:31;;;;;;;0.90;0.90;;;0.90;99.90;;;;;;4537964;28;21226;-75
2024/03/13 01:55:13;;;;;;;0.70;0.70;;;0.80;99.90;;;;;;5030931;28;20237;-71
2024/03/13 01:57:56;;;;;;;0.70;0.70;;;0.90;99.90;;;;;;5030594;28;20213;-73
2024/03/13 02:03:09;;;;;;;0.75;0.75;;;0.80;99.90;;;;;;5030905;28;20336;-74
2024/03/13 02:05:38;;;;;;;0.80;0.80;;;0.80;99.90;;;;;;5029977;28;20260;-69
2024/03/13 02:08:05;;;;;;;0.70;0.70;;;0.80;99.90;;;;;;5030472;28;20296;-69
2024/03/13 02:10:32;;;;;;;1.13;1.13;;;0.70;99.90;;;;;;5032004;28;20210;-69
2024/03/13 02:13:10;;;;;;;0.70;0.70;;;0.70;99.90;;;;;;5052879;28;20189;-70
2024/03/13 02:15:39;;;;;;;0.95;0.90;;;0.70;99.90;;;;;;5071716;28;20188;-69
2024/03/13 02:18:29;;;;;;;0.70;0.70;;;0.70;99.90;;;;;;5072336;28;20185;-70
2024/03/13 02:21:01;;;;;;;0.73;0.73;;;0.70;99.90;;;;;;5072365;28;20200;-70
2024/03/13 02:23:28;;;;;;;0.80;0.80;;;0.70;99.90;;;;;;5071890;28;20302;-70
2024/03/13 02:25:55;;;;;;;0.90;0.90;;;0.70;99.90;;;;;;5072542;28;20212;-69
2024/03/13 02:28:35;;;;;;;0.73;0.73;;;0.80;99.90;;;;;;5071889;28;20283;-70
2024/03/13 02:31:01;;;;;;;0.70;0.70;;;0.80;99.90;;;;;;5071931;28;20200;-70
2024/03/13 02:33:27;;;;;;;0.70;0.70;;;0.80;99.90;;;;;;5071257;28;20224;-71
2024/03/13 02:35:53;;;;;;;0.70;0.70;;;0.80;99.90;;;;;;5071914;28;20192;-71
2024/03/13 02:38:19;;;;;;;0.60;0.60;;;0.70;99.90;;;;;;5053568;28;20207;-71
2024/03/13 02:40:44;;;;;;;0.80;0.80;;;0.70;99.90;;;;;;5072311;28;20286;-70
2024/03/13 02:43:14;;;;;;;0.80;0.80;;;0.70;99.90;;;;;;5054301;28;20204;-70
2024/03/13 02:45:43;;;;;;;0.70;0.70;;;0.70;99.90;;;;;;5054154;28;20677;-70
2024/03/13 02:48:11;;;;;;;0.90;0.90;;;0.70;99.90;;;;;;5072313;28;20326;-70
2024/03/13 02:50:40;;;;;;;1.10;1.10;;;0.70;99.90;;;;;;5071947;28;20204;-70
2024/03/13 02:53:09;;;;;;;0.82;0.82;;;0.70;99.90;;;;;;5072176;28;20661;-70
2024/03/13 02:55:35;;;;;;;0.80;0.80;;;0.70;99.90;;;;;;5054017;28;20610;-70
2024/03/13 02:58:03;;;;;;;0.77;0.77;;;0.80;99.90;;;;;;5072204;28;20282;-70
2024/03/13 03:00:29;;;;;;;0.70;0.70;;;0.80;99.90;;;;;;5071911;28;20272;-71
2024/03/13 03:02:56;;;;;;;0.60;0.60;;;0.80;99.90;;;;;;5072687;28;20196;-70
2024/03/13 03:05:22;;;;;;;0.80;0.80;;;0.80;99.90;;;;;;5071916;28;20204;-70
2024/03/13 03:07:48;;;;;;;0.65;0.65;;;0.80;99.90;;;;;;5076528;28;20196;-70
2024/03/13 03:10:14;;;;;;;0.60;0.60;;;0.80;99.90;;;;;;5092215;28;20681;-70
2024/03/13 03:12:43;;;;;;;0.80;0.80;;;0.80;99.90;;;;;;5092059;28;20192;-71
2024/03/13 03:15:10;;;;;;;0.70;0.70;;;0.80;99.90;;;;;;5074499;28;20649;-70
2024/03/13 03:17:36;;;;;;;0.73;0.73;;;0.80;99.90;;;;;;5092174;28;20223;-74
2024/03/13 03:20:01;;;;;;;0.70;0.70;;;0.80;99.90;;;;;;5092089;28;20192;-75
2024/03/13 03:22:27;;;;;;;0.60;0.60;;;0.80;99.90;;;;;;5073869;28;20203;-74
2024/03/13 03:24:55;;;;;;;0.50;0.50;;;0.80;99.90;;;;;;5092127;28;20230;-74
2024/03/13 03:27:21;;;;;;;0.68;0.68;;;0.80;99.90;;;;;;5091793;28;20322;-74
2024/03/13 03:29:47;;;;;;;0.70;0.70;;;0.70;99.90;;;;;;5092035;28;20215;-74
2024/03/13 03:32:12;;;;;;;0.90;0.90;;;0.70;99.90;;;;;;5092036;28;20192;-74
2024/03/13 03:34:42;;;;;;;0.75;0.75;;;0.70;99.90;;;;;;5091735;28;20783;-74
2024/03/13 03:37:07;;;;;;;0.60;0.60;;;0.70;99.90;;;;;;5092032;28;20188;-73
2024/03/13 03:39:34;;;;;;;0.60;0.60;;;0.70;99.90;;;;;;5091852;28;20203;-74
2024/03/13 03:42:02;;;;;;;0.70;0.70;;;0.70;99.90;;;;;;5092032;28;20656;-74
2024/03/13 03:44:29;;;;;;;0.80;0.80;;;0.80;99.90;;;;;;5073524;28;20695;-74
2024/03/13 03:46:58;;;;;;;0.77;0.77;;;0.70;99.90;;;;;;5107662;28;20228;-74
2024/03/13 03:49:24;;;;;;;0.63;0.63;;;0.70;99.90;;;;;;5094474;28;20200;-74
2024/03/13 03:51:50;;;;;;;0.63;0.63;;;0.60;99.90;;;;;;5095598;28;20561;-74
2024/03/13 03:54:16;;;;;;;0.68;0.68;;;0.70;99.90;;;;;;5095478;28;20180;-74
2024/03/13 03:56:41;;;;;;;0.70;0.70;;;0.70;99.90;;;;;;5077202;28;20562;-74
2024/03/13 03:59:10;;;;;;;0.90;0.90;;;0.70;99.90;;;;;;5095332;28;20261;-73
2024/03/13 04:01:36;;;;;;;0.60;0.60;;;0.80;99.90;;;;;;5085077;28;20569;-73
2024/03/13 04:04:03;;;;;;;0.90;0.90;;;0.70;99.90;;;;;;5088773;28;20226;-74
2024/03/13 04:06:32;;;;;;;0.90;0.90;;;0.80;99.90;;;;;;5094964;28;20224;-74
2024/03/13 04:08:58;;;;;;;1.25;0.95;;;0.80;99.90;;;;;;5095248;28;20556;-74
2024/03/13 04:11:24;;;;;;;0.70;0.70;;;0.80;99.90;;;;;;5076911;28;20188;-75
2024/03/13 04:13:50;;;;;;;0.63;0.63;;;0.80;99.90;;;;;;5095056;28;20556;-75
2024/03/13 04:16:20;;;;;;;0.60;0.60;;;0.80;99.90;;;;;;5095008;28;20207;-74
2024/03/13 04:18:45;;;;;;;1.40;1.20;;;0.70;99.90;;;;;;5094994;28;20653;-74
2024/03/13 04:21:12;;;;;;;0.60;0.60;;;0.70;99.90;;;;;;5076589;28;20238;-74
2024/03/13 04:23:38;;;;;;;0.75;0.75;;;0.70;99.90;;;;;;5094785;28;20199;-74
2024/03/13 04:26:05;;;;;;;0.77;0.77;;;0.70;99.90;;;;;;5094870;28;20196;-73
2024/03/13 04:28:30;;;;;;;0.60;0.60;;;0.70;99.90;;;;;;5094682;28;20651;-73
2024/03/13 04:30:57;;;;;;;0.70;0.70;;;0.70;99.90;;;;;;5094755;28;20211;-73
2024/03/13 04:33:23;;;;;;;0.77;0.77;;;0.60;99.90;;;;;;5094572;28;20196;-74
2024/03/13 04:35:48;;;;;;;3.05;2.35;;;0.60;99.90;;;;;;5094666;28;20184;-74
2024/03/13 04:38:14;;;;;;;0.70;0.70;;;0.60;99.90;;;;;;5094690;28;20188;-74
2024/03/13 04:40:42;;;;;;;0.63;0.63;;;0.60;99.90;;;;;;5094533;28;20204;-74
2024/03/13 04:43:08;;;;;;;0.73;0.73;;;0.60;99.90;;;;;;5094336;28;20192;-73
2024/03/13 04:45:37;;;;;;;0.60;0.60;;;0.60;99.90;;;;;;5094144;28;20299;-74
2024/03/13 04:48:05;;;;;;;0.60;0.60;;;0.60;99.90;;;;;;5094613;28;20192;-74
2024/03/13 04:50:34;;;;;;;0.70;0.70;;;0.60;99.90;;;;;;5094119;28;20204;-74
2024/03/13 04:53:00;;;;;;;1.92;1.65;;;0.60;99.90;;;;;;5094469;28;20648;-74
2024/03/13 04:55:25;;;;;;;0.63;0.63;;;0.70;99.90;;;;;;5094167;28;20246;-74
2024/03/13 04:57:51;;;;;;;0.60;0.60;;;0.70;99.90;;;;;;5094364;28;20529;-73
2024/03/13 05:00:17;;;;;;;0.70;0.70;;;0.60;99.90;;;;;;5092958;28;20184;-74
2024/03/13 05:02:43;;;;;;;0.60;0.60;;;0.70;99.90;;;;;;5094644;28;20652;-74
2024/03/13 05:05:14;;;;;;;0.60;0.60;;;0.70;99.90;;;;;;5094121;28;20279;-74
2024/03/13 05:07:43;;;;;;;1.17;1.08;;;0.60;99.90;;;;;;5093910;28;20275;-75
2024/03/13 05:10:10;;;;;;;0.70;0.70;;;0.70;99.90;;;;;;5094023;28;20291;-74
2024/03/13 05:12:37;;;;;;;0.70;0.70;;;0.60;99.90;;;;;;5093624;28;20180;-75
2024/03/13 05:15:09;;;;;;;6.18;1.63;;;0.60;99.90;;;;;;5093855;28;20192;-74
2024/03/13 05:17:36;;;;;;;0.70;0.70;;;0.60;99.90;;;;;;5093745;28;20578;-74
2024/03/13 05:20:06;;;;;;;0.90;0.90;;;0.70;99.90;;;;;;5093737;28;20713;-75
2024/03/13 05:22:32;;;;;;;0.60;0.60;;;0.70;99.90;;;;;;5093781;28;20196;-74
2024/03/13 05:24:58;;;;;;;0.80;0.80;;;0.60;99.90;;;;;;5094057;28;20679;-74
2024/03/13 05:27:27;;;;;;;0.70;0.70;;;0.60;99.90;;;;;;5093805;28;20196;-73
2024/03/13 05:29:52;;;;;;;0.90;0.90;;;0.60;99.90;;;;;;5094030;28;20547;-72
2024/03/13 05:32:19;;;;;;;0.70;0.70;;;0.60;99.90;;;;;;5093650;28;20217;-73
2024/03/13 05:34:44;;;;;;;0.90;0.90;;;0.60;99.90;;;;;;5093430;28;20203;-73
2024/03/13 05:37:12;;;;;;;1.38;1.27;;;0.60;99.90;;;;;;5093527;28;20659;-72
2024/03/13 05:39:38;;;;;;;0.70;0.70;;;0.60;99.90;;;;;;5093314;28;20658;-72
2024/03/13 05:42:04;;;;;;;0.60;0.60;;;0.60;99.90;;;;;;5093448;28;20322;-71
2024/03/13 05:44:29;;;;;;;0.60;0.60;;;0.60;99.90;;;;;;5093010;28;20263;-71
2024/03/13 05:46:56;;;;;;;0.77;0.77;;;0.70;99.90;;;;;;5093399;28;20273;-71
2024/03/13 05:49:21;;;;;;;0.77;0.77;;;0.70;99.90;;;;;;5093046;28;20199;-70
2024/03/13 05:51:47;;;;;;;0.70;0.70;;;0.70;99.90;;;;;;5093200;28;20190;-71
2024/03/13 05:54:14;;;;;;;0.70;0.70;;;0.70;99.90;;;;;;5093045;28;20192;-71
2024/03/13 05:56:39;;;;;;;0.70;0.70;;;0.70;99.90;;;;;;5092405;28;20596;-70
2024/03/13 05:59:05;;;;;;;0.77;0.77;;;0.80;99.90;;;;;;5093134;28;20184;-70
2024/03/13 06:01:31;;;;;;;1.15;1.08;;;0.80;99.90;;;;;;5074534;28;20656;-71
2024/03/13 06:03:59;;;;;;;0.80;0.80;;;0.80;99.90;;;;;;5093057;28;20718;-71
2024/03/13 06:06:25;;;;;;;0.90;0.90;;;0.90;99.90;;;;;;5092669;28;20215;-70
2024/03/13 06:08:51;;;;;;;0.90;0.90;;;0.90;99.90;;;;;;5074837;28;20192;-72
2024/03/13 06:11:19;;;;;;;1.02;1.02;;;0.90;99.90;;;;;;5092759;28;20208;-71
2024/03/13 06:13:48;;;;;;;1.23;1.13;;;1.00;99.90;;;;;;5092810;28;20185;-71
2024/03/13 06:16:15;;;;;;;0.75;0.75;;;1.00;99.90;;;;;;5092842;28;20249;-71
2024/03/13 06:18:41;;;;;;;0.68;0.68;;;1.00;99.90;;;;;;5092544;28;20194;-70
2024/03/13 06:21:10;;;;;;;0.70;0.70;;;1.10;99.90;;;;;;5074428;28;20637;-71
2024/03/13 06:23:37;;;;;;;0.50;0.50;;;1.10;99.90;;;;;;5074411;28;20638;-70
2024/03/13 06:26:07;;;;;;;1.33;1.23;;;1.20;99.90;;;;;;5092626;28;20240;-71
2024/03/13 06:31:17;;;;;;;0.63;0.63;;;1.30;99.90;;;;;;5092442;28;20253;-71
2024/03/13 06:33:43;;;;;;;0.85;0.85;;;1.40;99.90;;;;;;5092441;28;20199;-71
2024/03/13 06:36:10;;;;;;;0.80;0.80;;;1.40;99.90;;;;;;5092779;28;20279;-71
2024/03/13 06:38:36;;;;;;;0.85;0.85;;;1.40;99.90;;;;;;5092468;28;20184;-71
2024/03/13 06:41:02;;;;;;;0.70;0.70;;;1.50;99.90;;;;;;5092525;28;20543;-71
2024/03/13 06:43:27;;;;;;;0.75;0.75;;;1.50;99.90;;;;;;5092177;28;20199;-71
2024/03/13 06:45:53;;;;;;;0.63;0.63;;;1.60;99.90;;;;;;5092628;28;20204;-74
2024/03/13 06:48:19;;;;;;;3.70;2.70;;;1.60;99.90;;;;;;5092258;28;20235;-74
2024/03/13 06:50:45;;;;;;;7.40;5.00;;;1.70;99.90;;;;;;5092429;28;20236;-74
2024/03/13 06:53:10;;;;;;;5.88;3.63;;;1.70;99.90;;;;;;5067663;28;20192;-74
2024/03/13 06:55:37;;;;;;;1.92;1.75;;;1.80;99.90;;;;;;5092295;28;20266;-74
2024/03/13 06:58:04;;;;;;;0.70;0.70;;;1.80;99.90;;;;;;5092434;28;20188;-74
2024/03/13 07:00:32;;;;;;;0.77;0.77;;;1.80;99.90;;;;;;5092176;28;20192;-74
2024/03/13 07:03:01;;;;;;;0.70;0.70;;;1.90;99.90;;;;;;5092779;28;20226;-74
2024/03/13 07:05:27;;;;;;;0.82;0.82;;;1.90;99.90;;;;;;5092143;28;20216;-74
2024/03/13 07:07:57;;;;;;;1.40;1.30;;;2.00;99.90;;;;;;5092333;28;20200;-74
2024/03/13 07:10:23;;;;;;;0.80;0.80;;;2.10;99.90;;;;;;5092051;28;20211;-74
2024/03/13 07:12:49;;;;;;;0.70;0.70;;;2.10;99.90;;;;;;5092239;28;20188;-75
2024/03/13 07:15:15;;;;;;;1.48;1.38;;;2.20;99.90;;;;;;5092207;28;20678;-75
2024/03/13 07:17:42;;;;;;;0.80;0.80;;;2.20;99.90;;;;;;5092045;28;20196;-75
2024/03/13 07:20:11;;;;;;;1.20;1.10;;;2.30;99.90;;;;;;5092172;28;20220;-75
2024/03/13 07:22:40;;;;;;;0.90;0.90;;;2.30;99.90;;;;;;5092128;28;20192;-76
2024/03/13 07:25:09;;;;;;;0.70;0.70;;;2.40;99.90;;;;;;5096053;28;20271;-75
2024/03/13 07:27:35;;;;;;;0.70;0.70;;;2.30;99.90;;;;;;5077575;28;20200;-74
2024/03/13 07:30:01;;;;;;;0.90;0.90;;;2.30;99.90;;;;;;5077663;28;20208;-75
2024/03/13 07:32:27;;;;;;;0.70;0.70;;;2.40;99.90;;;;;;5095736;28;20185;-74
2024/03/13 07:34:52;;;;;;;0.77;0.77;;;2.30;99.90;;;;;;5095717;28;20709;-74
2024/03/13 07:37:18;;;;;;;0.70;0.70;;;2.30;99.90;;;;;;5095642;28;20193;-74
2024/03/13 07:39:44;;;;;;;3.13;2.75;;;2.30;99.90;;;;;;5095818;28;20200;-74
2024/03/13 07:42:10;;;;;;;2.40;1.38;;;2.20;99.90;;;;;;5095679;28;20188;-75
2024/03/13 07:44:36;;;;;;;1.45;1.33;;;2.20;99.90;;;;;;5077195;28;20690;-74
2024/03/13 07:47:02;;;;;;;0.80;0.80;;;2.20;99.90;;;;;;5095655;28;20598;-74
2024/03/13 07:49:30;;;;;;;0.90;0.88;;;2.30;99.90;;;;;;5076713;28;20290;-74
2024/03/13 07:52:01;;;;;;;0.90;0.90;;;2.30;99.90;;;;;;5077387;28;20728;-75
2024/03/13 07:54:28;;;;;;;0.63;0.63;;;2.30;99.90;;;;;;5095327;28;20215;-74
2024/03/13 07:56:53;;;;;;;0.80;0.80;;;2.40;99.90;;;;;;5095599;28;20563;-71
2024/03/13 07:59:19;;;;;;;1.65;1.55;;;2.40;99.90;;;;;;5095326;28;20241;-73
2024/03/13 08:01:45;;;;;;;0.90;0.90;;;2.40;99.90;;;;;;5095527;28;20271;-71
2024/03/13 08:04:11;;;;;;;0.80;0.80;;;2.50;99.90;;;;;;5095322;28;20194;-71
2024/03/13 08:06:40;;;;;;;0.80;0.80;;;2.50;99.90;;;;;;5095058;28;20197;-71
2024/03/13 08:09:06;;;;;;;0.70;0.70;;;2.40;99.90;;;;;;5095203;28;20648;-71
2024/03/13 08:11:32;;;;;;;0.70;0.70;;;2.40;99.90;;;;;;5076640;28;20196;-71
2024/03/13 08:14:01;;;;;;;0.73;0.73;;;2.50;99.90;;;;;;5076882;28;20199;-71
2024/03/13 08:16:27;;;;;;;0.85;0.85;;;2.50;99.90;;;;;;5094733;28;20618;-70
2024/03/13 08:18:52;;;;;;;1.10;1.10;;;2.50;99.90;;;;;;5095006;28;20216;-70
2024/03/13 08:21:18;;;;;;;0.90;0.90;;;2.50;99.90;;;;;;5094866;28;20236;-72
2024/03/13 08:23:47;;;;;;;0.90;0.90;;;2.60;99.90;;;;;;5095151;28;20248;-70
2024/03/13 08:26:16;;;;;;;0.90;0.90;;;2.70;99.90;;;;;;5076454;28;20204;-71
2024/03/13 08:28:41;;;;;;;1.02;1.02;;;2.70;99.90;;;;;;5094626;28;20569;-70
2024/03/13 08:31:09;;;;;;;1.33;1.23;;;2.70;99.90;;;;;;5094732;28;20200;-72
2024/03/13 08:33:35;;;;;;;1.00;1.00;;;2.80;99.90;;;;;;5094536;28;20189;-71
2024/03/13 08:36:02;;;;;;;0.60;0.60;;;2.80;99.90;;;;;;5093569;28;20203;-70
2024/03/13 08:38:29;;;;;;;0.90;0.90;;;2.90;99.90;;;;;;5094384;28;20216;-71
2024/03/13 08:40:55;;;;;;;0.68;0.68;;;2.90;99.90;;;;;;5094624;28;20689;-70
2024/03/13 08:43:22;;;;;;;0.77;0.77;;;2.90;99.90;;;;;;5094130;28;20203;-71
2024/03/13 08:45:48;;;;;;;0.85;0.85;;;2.90;99.90;;;;;;5094136;28;20283;-70
2024/03/13 08:48:13;;;;;;;0.85;0.82;;;2.80;99.90;;;;;;5094452;28;20706;-71
2024/03/13 08:50:40;;;;;;;0.90;0.90;;;2.80;99.90;;;;;;5076012;28;20207;-70
2024/03/13 08:53:06;;;;;;;0.80;0.80;;;2.80;99.90;;;;;;5094287;28;20200;-71
2024/03/13 08:55:34;;;;;;;0.70;0.70;;;2.80;99.90;;;;;;5094181;28;20188;-70
2024/03/13 08:58:02;;;;;;;0.60;0.60;;;2.90;99.90;;;;;;5094388;28;20234;-72
2024/03/13 09:00:28;;;;;;;0.73;0.73;;;2.90;99.90;;;;;;5093963;28;20567;-71
2024/03/13 09:02:56;;;;;;;0.90;0.90;;;3.00;99.90;;;;;;5094608;28;20200;-71
2024/03/13 09:05:22;;;;;;;0.90;0.90;;;3.00;99.90;;;;;;5093823;28;20199;-71
2024/03/13 09:07:47;;;;;;;0.80;0.80;;;3.00;99.90;;;;;;5094188;28;20196;-75
2024/03/13 09:10:16;;;;;;;0.80;0.80;;;3.00;99.90;;;;;;5075960;28;20216;-74
2024/03/13 09:12:41;;;;;;;0.73;0.73;;;3.00;99.90;;;;;;5093833;28;20709;-75
2024/03/13 09:15:09;;;;;;;0.77;0.77;;;3.10;99.90;;;;;;5093827;28;20188;-74
2024/03/13 09:17:35;;;;;;;0.80;0.80;;;3.10;99.90;;;;;;5093714;28;20212;-74
2024/03/13 09:20:01;;;;;;;0.60;0.60;;;3.10;99.90;;;;;;5093739;28;20227;-74
2024/03/13 09:22:27;;;;;;;0.75;0.75;;;3.10;99.90;;;;;;5093560;28;20200;-74
2024/03/13 09:24:53;;;;;;;1.00;0.90;;;3.10;99.90;;;;;;5093714;28;20279;-75
2024/03/13 09:27:19;;;;;;;0.90;0.90;;;3.10;99.90;;;;;;5093346;28;20649;-74
2024/03/13 09:29:45;;;;;;;0.80;0.80;;;3.20;99.90;;;;;;5093629;28;20208;-74
2024/03/13 09:32:11;;;;;;;0.80;0.80;;;3.30;99.90;;;;;;5093606;28;20258;-75
2024/03/13 09:34:37;;;;;;;0.80;0.80;;;3.30;99.90;;;;;;5074975;28;20192;-74
2024/03/13 09:37:07;;;;;;;0.60;0.60;;;3.20;99.90;;;;;;5093539;28;20199;-74
2024/03/13 09:39:36;;;;;;;0.70;0.70;;;3.20;99.90;;;;;;5093313;28;20184;-74
2024/03/13 09:42:08;;;;;;;0.70;0.70;;;3.30;99.90;;;;;;5092935;28;20241;-74
2024/03/13 09:44:35;;;;;;;0.60;0.60;;;3.40;99.90;;;;;;5093310;28;20239;-75
2024/03/13 09:47:05;;;;;;;0.80;0.80;;;3.50;99.90;;;;;;5093016;28;20192;-74
2024/03/13 09:49:32;;;;;;;0.95;0.95;;;3.60;99.90;;;;;;5092970;28;20193;-75
2024/03/13 09:51:57;;;;;;;0.80;0.80;;;3.50;99.90;;;;;;5093366;28;20199;-75
2024/03/13 09:54:24;;;;;;;0.60;0.60;;;3.60;99.90;;;;;;5092965;28;20581;-75
2024/03/13 09:56:52;;;;;;;0.80;0.80;;;3.70;99.90;;;;;;5093149;28;20188;-75
2024/03/13 09:59:17;;;;;;;0.70;0.70;;;3.80;99.90;;;;;;5093073;28;20644;-74
2024/03/13 10:01:51;;;;;;;2.38;2.05;;;3.90;99.90;;;;;;5092793;28;20196;-75
2024/03/13 10:04:24;;;;;;;0.90;0.90;;;4.00;99.90;;;;;;5093020;28;20196;-74
2024/03/13 10:06:53;;;;;;;0.73;0.73;;;4.20;99.90;;;;;;5093047;28;20212;-74
2024/03/13 10:09:35;;;;;;;0.80;0.80;;;4.30;99.90;;;;;;5074585;28;20199;-74
2024/03/13 10:12:02;;;;;;;0.88;0.88;;;4.30;99.90;;;;;;5092953;28;20713;-74
2024/03/13 10:14:29;;;;;;;0.55;0.55;;;4.40;99.90;;;;;;5092597;28;20192;-74
2024/03/13 10:17:03;;;;;;;0.77;0.77;;;4.50;99.90;;;;;;5074817;28;20196;-74
2024/03/13 10:19:31;;;;;;;1.27;1.17;;;4.50;99.90;;;;;;5074300;28;20226;-74
2024/03/13 10:21:59;;;;;;;0.55;0.55;;;4.40;99.90;;;;;;5092878;28;20709;-74
2024/03/13 10:24:28;;;;;;;0.80;0.80;;;4.40;99.90;;;;;;5092398;28;20647;-74
2024/03/13 10:26:56;;;;;;;0.80;0.80;;;4.20;99.90;;;;;;5092811;28;20192;-74
2024/03/13 10:29:23;;;;;;;0.70;0.70;;;4.10;99.90;;;;;;5092301;28;20192;-74
2024/03/13 10:31:53;;;;;;;0.55;0.55;;;4.10;99.90;;;;;;5092653;28;20200;-74
2024/03/13 10:34:19;;;;;;;1.40;1.30;;;4.20;99.90;;;;;;5074406;28;20200;-75
2024/03/13 10:36:46;;;;;;;0.80;0.80;;;4.20;99.90;;;;;;5090395;28;20203;-74
2024/03/13 10:39:14;;;;;;;0.70;0.70;;;4.20;99.90;;;;;;5088577;28;20659;-75
2024/03/13 10:41:46;;;;;;;0.70;0.70;;;4.10;99.90;;;;;;5074396;28;20212;-75
2024/03/13 10:44:12;;;;;;;0.80;0.80;;;4.10;99.90;;;;;;5092330;28;20227;-75
2024/03/13 10:46:38;;;;;;;0.80;0.80;;;4.10;99.90;;;;;;5092435;28;20200;-74
2024/03/13 10:49:06;;;;;;;0.70;0.70;;;4.10;99.90;;;;;;5092538;28;20229;-74
2024/03/13 10:51:31;;;;;;;0.70;0.70;;;4.10;99.90;;;;;;5074195;28;20675;-75
2024/03/13 10:54:04;;;;;;;0.90;0.90;;;4.10;99.90;;;;;;5092546;28;20196;-75
2024/03/13 10:56:29;;;;;;;0.80;0.80;;;4.10;99.90;;;;;;5092398;28;20188;-74
2024/03/13 10:58:55;;;;;;;0.75;0.75;;;4.10;99.90;;;;;;5095253;28;20681;-74
2024/03/13 11:01:21;;;;;;;0.85;0.85;;;4.20;99.90;;;;;;5097665;28;20199;-75
2024/03/13 11:03:58;;;;;;;0.90;0.90;;;4.30;99.90;;;;;;5096020;28;20199;-76
2024/03/13 11:06:25;;;;;;;0.80;0.80;;;4.30;99.90;;;;;;5079084;28;20337;-75
2024/03/13 11:08:51;;;;;;;0.90;0.90;;;4.40;99.90;;;;;;5078659;28;20713;-75
2024/03/13 11:11:20;;;;;;;0.70;0.70;;;4.40;99.90;;;;;;5097003;28;20294;-77
2024/03/13 11:13:54;;;;;;;0.90;0.90;;;4.40;99.90;;;;;;5097386;28;20189;-76
2024/03/13 11:16:21;;;;;;;0.70;0.70;;;4.40;99.90;;;;;;5096220;28;20188;-72
2024/03/13 11:18:51;;;;;;;0.70;0.70;;;4.40;99.90;;;;;;5096200;28;20192;-76
2024/03/13 11:21:37;;;;;;;0.70;0.70;;;4.40;99.90;;;;;;5095997;28;20192;-76
2024/03/13 11:24:06;;;;;;;0.93;0.93;;;4.20;99.90;;;;;;5095775;28;20219;-75
2024/03/13 11:26:37;;;;;;;1.40;1.30;;;4.20;99.90;;;;;;5096060;28;20565;-76
2024/03/13 11:29:06;;;;;;;3.92;2.40;;;4.10;99.90;;;;;;5096091;28;20195;-76
2024/03/13 11:31:33;;;;;;;1.40;1.05;;;4.10;99.90;;;;;;5095708;28;20257;-78
2024/03/13 11:34:01;;;;;;;0.82;0.82;;;4.00;99.90;;;;;;5089601;28;20736;-76
2024/03/13 11:36:28;;;;;;;0.70;0.70;;;4.00;99.90;;;;;;5077613;28;20216;-76
2024/03/13 11:38:54;;;;;;;0.80;0.80;;;3.90;99.90;;;;;;5077698;28;20659;-76
2024/03/13 11:41:20;;;;;;;0.70;0.70;;;3.80;99.90;;;;;;5095569;28;20249;-75
2024/03/13 11:43:46;;;;;;;1.00;1.00;;;3.70;99.90;;;;;;5095752;28;20228;-76
2024/03/13 11:46:13;;;;;;;0.88;0.88;;;3.70;99.90;;;;;;5095827;28;20203;-77
2024/03/13 11:48:41;;;;;;;0.80;0.80;;;3.70;99.90;;;;;;5095545;28;20196;-77
2024/03/13 11:51:07;;;;;;;0.90;0.90;;;3.70;99.90;;;;;;5095566;28;20222;-78
2024/03/13 11:53:40;;;;;;;1.95;1.75;;;3.70;99.90;;;;;;5095344;28;20184;-76
2024/03/13 11:56:13;;;;;;;0.70;0.70;;;3.70;99.90;;;;;;5077287;28;20211;-77
2024/03/13 11:58:40;;;;;;;0.90;0.90;;;3.60;99.90;;;;;;5095426;28;20192;-75
2024/03/13 12:01:12;;;;;;;1.33;1.23;;;3.60;99.90;;;;;;5095282;28;20265;-75
2024/03/13 12:03:40;;;;;;;0.75;0.75;;;3.60;99.90;;;;;;5095209;28;20192;-77
2024/03/13 12:06:33;;;;;;;0.90;0.90;;;3.60;99.90;;;;;;5095238;28;20585;-76
2024/03/13 12:08:59;;;;;;;1.00;1.00;;;3.60;99.90;;;;;;5088945;28;20211;-76
2024/03/13 12:11:27;;;;;;;0.70;0.70;;;3.50;99.90;;;;;;5095146;28;20592;-76
2024/03/13 12:13:54;;;;;;;1.40;1.30;;;3.60;99.90;;;;;;5095042;28;20260;-76
2024/03/13 12:16:22;;;;;;;0.60;0.60;;;3.50;99.90;;;;;;5094983;28;20192;-76
2024/03/13 12:18:53;;;;;;;0.98;0.98;;;3.50;99.90;;;;;;5095314;28;20196;-77
2024/03/13 12:21:25;;;;;;;0.75;0.75;;;3.50;99.90;;;;;;5094832;28;20220;-77
2024/03/13 12:23:54;;;;;;;0.80;0.80;;;3.50;99.90;;;;;;5076852;28;20207;-76
2024/03/13 12:26:20;;;;;;;0.98;0.98;;;3.50;99.90;;;;;;5094747;28;20207;-76
2024/03/13 12:28:48;;;;;;;0.90;0.90;;;3.50;99.90;;;;;;5076638;28;20192;-76
2024/03/13 12:31:14;;;;;;;1.52;1.42;;;3.40;99.90;;;;;;5088372;28;20203;-76
2024/03/13 12:33:40;;;;;;;1.05;1.05;;;3.40;99.90;;;;;;5076510;28;20614;-77
2024/03/13 12:36:06;;;;;;;2.15;2.05;;;3.30;99.90;;;;;;5094921;28;20185;-74
2024/03/13 12:38:36;;;;;;;1.55;0.95;;;3.40;99.90;;;;;;5094470;28;20588;-73
2024/03/13 12:41:02;;;;;;;0.90;0.90;;;3.40;99.90;;;;;;5094611;28;20678;-74
2024/03/13 12:43:28;;;;;;;0.68;0.68;;;3.30;99.90;;;;;;5094181;28;20203;-74
2024/03/13 12:45:55;;;;;;;0.65;0.65;;;3.30;99.90;;;;;;5094563;28;20271;-74
2024/03/13 12:48:21;;;;;;;1.48;1.38;;;3.20;99.90;;;;;;5076087;28;20223;-74
2024/03/13 12:50:48;;;;;;;0.80;0.80;;;3.20;99.90;;;;;;5094342;28;20200;-73
2024/03/13 12:53:15;;;;;;;1.10;1.10;;;3.20;99.90;;;;;;5094290;28;20196;-74
2024/03/13 12:55:40;;;;;;;0.70;0.70;;;3.20;99.90;;;;;;5094174;28;20682;-75
2024/03/13 12:58:06;;;;;;;0.68;0.68;;;3.30;99.90;;;;;;5056234;28;20189;-74
2024/03/13 13:00:34;;;;;;;0.80;0.80;;;3.30;99.90;;;;;;5073826;28;20193;-74
2024/03/13 13:03:00;;;;;;;0.75;0.75;;;3.40;99.90;;;;;;5072621;28;20204;-73
2024/03/13 13:05:26;;;;;;;0.80;0.80;;;3.30;99.90;;;;;;5073735;28;20243;-74
2024/03/13 13:07:55;;;;;;;0.80;0.80;;;3.30;99.90;;;;;;5073741;28;20188;-74
2024/03/13 13:10:24;;;;;;;0.75;0.75;;;3.20;99.90;;;;;;5073558;28;20720;-74
2024/03/13 13:12:54;;;;;;;1.00;1.00;;;3.20;99.90;;;;;;5072100;28;20236;-74
2024/03/13 13:15:21;;;;;;;0.80;0.80;;;3.20;99.90;;;;;;5073539;28;20189;-74
2024/03/13 13:17:49;;;;;;;1.48;1.38;;;3.10;99.90;;;;;;5073694;28;20196;-74
2024/03/13 13:20:15;;;;;;;1.13;1.13;;;3.10;99.90;;;;;;5073279;28;20279;-74
2024/03/13 13:22:45;;;;;;;1.10;1.10;;;3.10;99.90;;;;;;5072995;28;20200;-73
2024/03/13 13:25:16;;;;;;;1.15;1.05;;;3.10;99.90;;;;;;5073486;28;20203;-73
2024/03/13 13:27:50;;;;;;;1.00;1.00;;;3.10;99.90;;;;;;5087398;28;20204;-74
2024/03/13 13:30:18;;;;;;;1.60;1.40;;;3.10;99.90;;;;;;5093589;28;20579;-74
2024/03/13 13:32:47;;;;;;;1.35;1.25;;;3.10;99.90;;;;;;5093591;28;20188;-74
2024/03/13 13:35:16;;;;;;;0.80;0.80;;;3.10;99.90;;;;;;5075368;28;20248;-74
2024/03/13 13:37:43;;;;;;;0.80;0.80;;;3.10;99.90;;;;;;5093420;28;20192;-74
2024/03/13 13:40:12;;;;;;;0.60;0.60;;;3.20;99.90;;;;;;5075360;28;20668;-73
2024/03/13 13:42:43;;;;;;;3.17;1.77;;;3.20;99.90;;;;;;5075144;28;20206;-74
2024/03/13 13:45:17;;;;;;;1.30;1.20;;;3.20;99.90;;;;;;5075019;28;20632;-73
2024/03/13 13:47:43;;;;;;;0.80;0.80;;;3.10;99.90;;;;;;5093353;28;20199;-75
2024/03/13 13:50:10;;;;;;;1.17;1.15;;;3.00;99.90;;;;;;5093281;28;20204;-75
2024/03/13 13:52:41;;;;;;;1.00;1.00;;;3.00;99.90;;;;;;5093013;28;20713;-75
2024/03/13 13:55:10;;;;;;;1.88;1.52;;;3.10;99.90;;;;;;5093266;28;20186;-75
2024/03/13 13:57:37;;;;;;;6.68;3.55;;;3.10;99.90;;;;;;5093096;28;20289;-74
2024/03/13 14:00:09;;;;;;;13.43;1.48;;;3.10;99.90;;;;;;5093208;28;20196;-75
2024/03/13 14:02:35;;;;;;;0.95;0.95;;;3.20;99.90;;;;;;5093055;28;20199;-75
2024/03/13 14:05:01;;;;;;;1.63;1.35;;;3.10;99.90;;;;;;5074787;28;20204;-75
2024/03/13 14:07:27;;;;;;;2.67;1.20;;;3.10;99.90;;;;;;5092789;28;20192;-75
2024/03/13 14:09:52;;;;;;;0.68;0.68;;;3.20;99.90;;;;;;5092982;28;20200;-75
2024/03/13 14:12:23;;;;;;;1.70;1.60;;;3.20;99.90;;;;;;5092981;28;20192;-75